Clervaux, Luxembourg

9:00 PM CEST on August 20, 2014 (GMT +0200)
Doennange (LUX) | Change Station
CLOSE
Current Station
Personal Weather Station
Location: Doennange, CLERVAUX
Elevation: 1499 ft
Nearby Weather Stations

Elev 1499 ft 50.06 °N, 5.96 °E | Updated 52 seconds ago

Clear
Clear
52.3 °F
Feels Like 52.3 °F
N
3.1
Wind Variable Wind from NW
Gusts 4.5 mph

Today
High -- | Low -- °F
--% Chance of Precip.
Yesterday
High -- | Low -- °F
Precip. -- in
6:32 AM 8:45 PM
Waning Crescent, 20% visible
Pressure 29.99 in
Visibility 6.2 miles
Clouds Clear
Dew Point 41 °F
Humidity 65%
Rainfall 0.00 in
Snow Depth Not available.
UV 0 out of 12
Pollen Not available.
Air Quality Not available.
Flu Activity Not available.
METAR ETAD 201858Z AUTO 22004KT 9999 CLR 13/06 A3001 RMK AO2 SLP155 T01290059 $

More Conditions Fewer Conditions

Pressure 29.99 in
Visibility 6.2 miles
Clouds Clear
Dew Point 41 °F
Humidity 65%
Rainfall 0.00 in
Snow Depth Not available.
UV 0 out of 12
Pollen Not available.
Air Quality Not available.
Flu Activity Not available.
METAR ETAD 201858Z AUTO 22004KT 9999 CLR 13/06 A3001 RMK AO2 SLP155 T01290059 $

More Conditions Fewer Conditions

10-Day Weather Forecast

Almanac

Astronomy

Aug. 20, 2014 Rise Set
Actual Time 6:32 AM CEST 8:45 PM CEST
Civil Twilight 5:57 AM CEST 9:20 PM CEST
Nautical Twilight 5:13 AM CEST 10:04 PM CEST
Astronomical Twilight 4:22 AM CEST 10:54 PM CEST
Moon 1:48 AM CEST 5:28 PM CEST
Length of Visible Light 15h 22m
Length of Day
14h 12m
Tomorrow will be 3m 28s shorter.
Waning Crescent, 20% of the Moon is Illuminated
Today
Waning Crescent
Aug 25
New
Sep 2
First Quarter
Sep 8
Full
Sep 15
Last Quarter

Today's Extremes

Country Highs Country Lows

Community

WunderPhotos

Upload Photos

1,745,718 photos uploaded!

WunderBlogs® & News

By Dr. Jeff Masters
Director of Meteorology, Weather Underground
By Kari Strenfel
Meteorologist, Weather Underground
By Christopher C. Burt
Weather Historian, Weather Underground
August 20, 2014
August 20, 2014
August 20, 2014

Nearby

Snow Depth

Not available.

Earthquake Activity

City Distance Mag. Time & Date
No recent earthquake activity has been reported nearby.
Minimum magnitude displayed is 2.5.

Coastal Water Temperatures

Place Temperature
No Stations Reporting

Nearby Weather Stations